createdAt,value
2023-01-01T00:01:57.433Z,3.40
2023-01-01T00:04:27.803Z,3.67
2023-01-01T00:06:56.359Z,3.40
2023-01-01T00:09:42.140Z,3.57
2023-01-01T00:12:10.392Z,3.63
2023-01-01T00:14:39.225Z,3.57
2023-01-01T00:17:07.432Z,3.90
2023-01-01T00:19:37.037Z,3.70
2023-01-01T00:22:20.961Z,3.60
2023-01-01T00:24:53.607Z,4.07
2023-01-01T00:27:21.853Z,3.90
2023-01-01T00:29:50.071Z,4.03
2023-01-01T00:32:22.694Z,4.00
2023-01-01T00:34:52.834Z,4.20
2023-01-01T00:37:21.019Z,4.50
2023-01-01T00:39:49.283Z,4.57
2023-01-01T00:42:17.646Z,4.50
2023-01-01T00:44:45.976Z,5.17
2023-01-01T00:47:14.227Z,4.93
2023-01-01T00:49:42.537Z,5.10
2023-01-01T00:52:12.067Z,5.13
2023-01-01T00:54:40.285Z,4.30
2023-01-01T00:57:08.574Z,4.67
2023-01-01T00:59:36.832Z,4.30
2023-01-01T01:02:05.242Z,5.50
2023-01-01T01:04:33.624Z,4.73
2023-01-01T01:07:01.895Z,4.80
2023-01-01T01:09:31.481Z,5.00
2023-01-01T01:12:17.558Z,4.67
2023-01-01T01:14:47.433Z,5.17
2023-01-01T01:17:15.897Z,4.47
2023-01-01T01:19:44.312Z,5.07
2023-01-01T01:22:12.583Z,4.70
2023-01-01T01:24:42.194Z,5.17
2023-01-01T01:27:10.493Z,5.07
2023-01-01T01:29:38.748Z,4.90
2023-01-01T01:32:07.384Z,4.87
2023-01-01T01:34:35.585Z,4.63
2023-01-01T01:37:03.830Z,4.43
2023-01-01T01:39:32.042Z,4.70
2023-01-01T01:42:03.608Z,4.70
2023-01-01T01:44:50.231Z,4.80
2023-01-01T01:47:19.518Z,4.00
2023-01-01T01:49:48.037Z,4.00
2023-01-01T01:52:16.587Z,4.80
2023-01-01T01:54:44.785Z,4.60
2023-01-01T01:57:14.928Z,4.83
2023-01-01T01:59:44.809Z,5.00
2023-01-01T02:02:16.794Z,4.30
2023-01-01T02:04:45.125Z,5.03
2023-01-01T02:07:14.339Z,4.50
2023-01-01T02:09:42.575Z,4.70
2023-01-01T02:12:10.878Z,4.50
2023-01-01T02:14:40.514Z,4.80
2023-01-01T02:17:10.962Z,4.67
2023-01-01T02:19:45.493Z,4.30
2023-01-01T02:22:16.852Z,4.43
2023-01-01T02:24:53.936Z,4.80
2023-01-01T02:27:28.102Z,4.80
2023-01-01T02:29:59.813Z,4.70
2023-01-01T02:32:29.296Z,5.70
2023-01-01T02:34:59.882Z,4.60
2023-01-01T02:37:30.218Z,4.67
2023-01-01T02:39:59.584Z,4.17
2023-01-01T02:42:29.513Z,4.73
2023-01-01T02:45:00.943Z,4.20
2023-01-01T02:47:29.203Z,4.30
2023-01-01T02:50:00.264Z,4.10
2023-01-01T02:52:46.715Z,3.60
2023-01-01T02:55:18.313Z,3.93
2023-01-01T02:57:50.009Z,3.07
2023-01-01T03:00:19.776Z,2.80
2023-01-01T03:02:54.730Z,3.23
2023-01-01T03:05:31.672Z,3.10
2023-01-01T03:08:04.081Z,3.30
2023-01-01T03:10:35.354Z,2.90
2023-01-01T03:13:06.398Z,2.97
2023-01-01T03:15:40.261Z,3.10
2023-01-01T03:18:10.321Z,2.70
2023-01-01T03:20:41.150Z,2.70
2023-01-01T03:23:11.079Z,2.60
2023-01-01T03:25:41.557Z,2.50
2023-01-01T03:28:12.676Z,2.77
2023-01-01T03:30:44.061Z,2.43
2023-01-01T03:33:15.248Z,2.70
2023-01-01T03:35:47.073Z,2.67
2023-01-01T03:38:18.381Z,2.47
2023-01-01T03:40:47.452Z,2.63
2023-01-01T03:43:17.053Z,2.90
2023-01-01T03:45:48.259Z,3.20
2023-01-01T03:48:16.627Z,2.50
2023-01-01T03:50:51.627Z,2.40
2023-01-01T03:53:23.254Z,2.70
2023-01-01T03:55:52.810Z,2.63
2023-01-01T03:58:24.493Z,2.60
2023-01-01T04:00:57.266Z,2.33
2023-01-01T04:03:26.903Z,2.47
2023-01-01T04:05:55.083Z,2.47
2023-01-01T04:08:23.698Z,2.23
2023-01-01T04:10:53.562Z,2.40
2023-01-01T04:13:21.794Z,2.33
2023-01-01T04:15:50.061Z,2.20
2023-01-01T04:18:19.694Z,2.03
2023-01-01T04:20:47.874Z,2.33
2023-01-01T04:23:16.131Z,2.20
2023-01-01T04:25:44.297Z,2.40
2023-01-01T04:28:12.530Z,2.00
2023-01-01T04:33:08.002Z,2.00
2023-01-01T04:35:37.583Z,2.13
2023-01-01T04:38:06.416Z,2.40
2023-01-01T04:40:34.629Z,2.43
2023-01-01T04:43:02.816Z,1.97
2023-01-01T04:45:31.003Z,2.20
2023-01-01T04:47:59.326Z,2.20
2023-01-01T04:50:27.525Z,2.30
2023-01-01T04:52:57.098Z,2.40
2023-01-01T04:55:25.302Z,2.20
2023-01-01T04:57:53.489Z,1.83
2023-01-01T05:00:23.103Z,2.23
2023-01-01T05:02:51.372Z,2.00
2023-01-01T05:05:19.662Z,2.00
2023-01-01T05:07:47.903Z,2.07
2023-01-01T05:10:17.553Z,1.93
2023-01-01T05:12:45.754Z,2.57
2023-01-01T05:15:13.951Z,1.70
2023-01-01T05:17:42.203Z,2.23
2023-01-01T05:20:10.579Z,2.10
2023-01-01T05:22:39.241Z,2.33
2023-01-01T05:25:08.009Z,1.90
2023-01-01T05:27:37.937Z,2.47
2023-01-01T05:30:06.780Z,1.97
2023-01-01T05:32:34.978Z,2.00
2023-01-01T05:35:03.236Z,2.07
2023-01-01T05:37:31.457Z,1.97
2023-01-01T05:39:59.630Z,1.60
2023-01-01T05:42:27.858Z,1.80
2023-01-01T05:44:57.397Z,2.17
2023-01-01T05:47:29.689Z,2.20
2023-01-01T05:49:58.231Z,2.13
2023-01-01T05:52:27.059Z,2.10
2023-01-01T05:54:55.466Z,1.73
2023-01-01T05:57:23.659Z,2.10
2023-01-01T05:59:51.866Z,1.70
2023-01-01T06:02:21.527Z,1.90
2023-01-01T06:04:49.853Z,1.70
2023-01-01T06:07:18.104Z,1.90
2023-01-01T06:09:46.298Z,1.90
2023-01-01T06:12:14.530Z,2.00
2023-01-01T06:14:42.748Z,2.07
2023-01-01T06:17:10.969Z,1.90
2023-01-01T06:19:40.571Z,1.90
2023-01-01T06:22:08.765Z,1.70
2023-01-01T06:24:39.106Z,2.13
2023-01-01T06:27:07.885Z,2.00
2023-01-01T06:29:36.080Z,1.90
2023-01-01T06:32:04.290Z,2.03
2023-01-01T06:34:32.465Z,2.00
2023-01-01T06:37:06.753Z,1.80
2023-01-01T06:39:35.259Z,1.97
2023-01-01T06:42:03.472Z,2.03
2023-01-01T06:44:31.702Z,2.17
2023-01-01T06:46:59.871Z,1.93
2023-01-01T06:49:28.132Z,2.40
2023-01-01T06:51:56.486Z,2.17
2023-01-01T06:54:26.036Z,2.13
2023-01-01T06:56:54.218Z,2.50
2023-01-01T06:59:22.444Z,2.07
2023-01-01T07:01:50.692Z,2.10
2023-01-01T07:04:18.967Z,2.30
2023-01-01T07:06:47.191Z,1.80
2023-01-01T07:09:15.393Z,1.97
2023-01-01T07:11:44.983Z,1.80
2023-01-01T07:14:13.193Z,2.00
2023-01-01T07:16:41.500Z,2.10
2023-01-01T07:19:09.718Z,2.10
2023-01-01T07:21:43.311Z,2.20
2023-01-01T07:24:12.487Z,2.13
2023-01-01T07:26:41.046Z,1.90
2023-01-01T07:29:10.609Z,2.10
2023-01-01T07:31:39.348Z,2.40
2023-01-01T07:34:07.576Z,2.43
2023-01-01T07:36:35.813Z,2.17
2023-01-01T07:39:04.036Z,2.37
2023-01-01T07:41:32.329Z,2.07
2023-01-01T07:44:00.581Z,2.30
2023-01-01T07:46:30.609Z,2.00
2023-01-01T07:48:58.837Z,2.07
2023-01-01T07:51:27.652Z,1.90
2023-01-01T07:53:59.272Z,2.17
2023-01-01T07:56:30.542Z,2.10
2023-01-01T07:58:58.740Z,2.67
2023-01-01T08:01:27.085Z,2.30
2023-01-01T08:03:56.718Z,2.20
2023-01-01T08:06:24.899Z,2.80
2023-01-01T08:08:53.164Z,2.17
2023-01-01T08:11:21.351Z,2.13
2023-01-01T08:13:49.552Z,2.43
2023-01-01T08:16:17.832Z,2.47
2023-01-01T08:18:46.051Z,2.57
2023-01-01T08:21:15.629Z,2.23
2023-01-01T08:23:43.855Z,2.87
2023-01-01T08:26:16.280Z,2.70
2023-01-01T08:28:44.883Z,3.40
2023-01-01T08:31:13.317Z,3.10
2023-01-01T08:33:41.542Z,2.70
2023-01-01T08:36:11.560Z,2.93
2023-01-01T08:38:41.100Z,2.60
2023-01-01T08:41:09.280Z,2.33
2023-01-01T08:43:37.504Z,2.90
2023-01-01T08:46:05.810Z,2.87
2023-01-01T08:48:34.064Z,2.47
2023-01-01T08:51:03.076Z,3.17
2023-01-01T08:53:32.148Z,2.87
2023-01-01T08:56:03.806Z,3.10
2023-01-01T08:58:32.468Z,2.70
2023-01-01T09:01:00.806Z,2.60
2023-01-01T09:03:29.105Z,2.80
2023-01-01T09:05:57.316Z,2.80
2023-01-01T09:08:25.582Z,3.00
2023-01-01T09:10:54.273Z,3.07
2023-01-01T09:13:23.889Z,3.10
2023-01-01T09:15:52.342Z,2.77
2023-01-01T09:18:20.596Z,2.67
2023-01-01T09:20:48.853Z,2.73
2023-01-01T09:23:17.277Z,3.00
2023-01-01T09:25:45.585Z,2.83
2023-01-01T09:28:14.788Z,2.70
2023-01-01T09:30:44.523Z,2.93
2023-01-01T09:33:12.728Z,3.03
2023-01-01T09:35:44.113Z,2.97
2023-01-01T09:38:12.432Z,3.37
2023-01-01T09:40:51.348Z,3.23
2023-01-01T09:43:23.546Z,2.93
2023-01-01T09:45:57.155Z,2.83
2023-01-01T09:48:26.827Z,3.30
2023-01-01T09:50:55.409Z,2.80
2023-01-01T09:53:27.421Z,2.53
2023-01-01T09:55:58.065Z,3.07
2023-01-01T09:58:27.740Z,3.53
2023-01-01T10:00:59.718Z,3.00
2023-01-01T10:03:32.844Z,2.50
2023-01-01T10:06:04.748Z,2.67
2023-01-01T10:08:39.185Z,2.70
2023-01-01T10:11:11.049Z,3.33
2023-01-01T10:13:40.864Z,2.93
2023-01-01T10:16:16.047Z,2.93
2023-01-01T10:18:50.268Z,2.50
2023-01-01T10:21:20.431Z,2.60
2023-01-01T10:23:50.583Z,2.60
2023-01-01T10:26:21.530Z,2.53
2023-01-01T10:28:56.892Z,2.80
2023-01-01T10:31:31.104Z,2.30
2023-01-01T10:33:59.365Z,3.13
2023-01-01T10:36:27.981Z,2.23
2023-01-01T10:38:56.183Z,2.10
2023-01-01T10:41:24.432Z,2.67
2023-01-01T10:43:52.751Z,2.47
2023-01-01T10:46:29.607Z,2.53
2023-01-01T10:49:10.793Z,2.30
2023-01-01T10:51:39.713Z,2.20
2023-01-01T10:54:11.502Z,2.30
2023-01-01T10:56:41.884Z,2.23
2023-01-01T10:59:34.652Z,2.00
2023-01-01T11:02:15.549Z,1.97
2023-01-01T11:04:45.306Z,2.37
2023-01-01T11:07:20.029Z,2.73
2023-01-01T11:10:02.727Z,2.60
2023-01-01T11:13:03.639Z,2.20
2023-01-01T11:15:24.788Z,2.60
2023-01-01T11:17:53.220Z,2.00
2023-01-01T11:20:23.255Z,2.20
2023-01-01T11:22:52.925Z,2.53
2023-01-01T11:25:23.077Z,2.53
2023-01-01T11:27:51.686Z,2.53
2023-01-01T11:30:24.782Z,2.50
2023-01-01T11:32:55.773Z,2.23
2023-01-01T11:35:26.998Z,3.50
2023-01-01T11:37:55.936Z,2.80
2023-01-01T11:40:25.785Z,3.30
2023-01-01T11:42:58.261Z,3.00
2023-01-01T11:45:28.967Z,3.13
2023-01-01T11:48:01.239Z,3.20
2023-01-01T11:50:34.046Z,2.73
2023-01-01T11:53:19.654Z,2.90
2023-01-01T11:55:49.509Z,2.97
2023-01-01T11:58:20.168Z,2.93
2023-01-01T12:00:49.607Z,3.63
2023-01-01T12:03:21.650Z,3.50
2023-01-01T12:05:53.528Z,3.30
2023-01-01T12:08:25.372Z,3.63
2023-01-01T12:10:57.053Z,3.10
2023-01-01T12:13:28.602Z,3.10
2023-01-01T12:15:59.889Z,2.83
2023-01-01T12:18:31.501Z,3.03
2023-01-01T12:21:02.467Z,2.93
2023-01-01T12:23:30.933Z,2.87
2023-01-01T12:26:02.503Z,3.37
2023-01-01T12:28:35.852Z,3.30
2023-01-01T12:31:08.607Z,3.47
2023-01-01T12:33:45.274Z,3.23
2023-01-01T12:36:27.824Z,3.80
2023-01-01T12:39:38.555Z,3.50
2023-01-01T12:42:09.813Z,3.70
2023-01-01T12:44:47.571Z,3.30
2023-01-01T12:47:21.979Z,3.03
2023-01-01T12:50:00.195Z,3.80
2023-01-01T12:52:34.725Z,3.37
2023-01-01T12:55:26.704Z,2.87
2023-01-01T12:57:59.068Z,3.50
2023-01-01T13:00:27.830Z,3.07
2023-01-01T13:02:58.380Z,3.33
2023-01-01T13:05:38.398Z,3.13
2023-01-01T13:08:08.419Z,2.97
2023-01-01T13:10:37.572Z,3.17
2023-01-01T13:13:06.299Z,2.97
2023-01-01T13:15:44.641Z,3.30
2023-01-01T13:18:27.799Z,2.93
2023-01-01T13:20:57.617Z,2.80
2023-01-01T13:23:46.077Z,2.80
2023-01-01T13:26:33.323Z,3.40
2023-01-01T13:29:20.164Z,2.83
2023-01-01T13:32:09.257Z,4.30
2023-01-01T13:34:40.293Z,2.90
2023-01-01T13:37:27.038Z,3.03
2023-01-01T13:39:57.559Z,3.00
2023-01-01T13:42:42.315Z,3.30
2023-01-01T13:45:20.796Z,3.43
2023-01-01T13:48:11.883Z,2.83
2023-01-01T13:50:46.097Z,2.90
2023-01-01T13:53:29.103Z,3.03
2023-01-01T13:56:01.609Z,3.23
2023-01-01T13:58:47.710Z,3.27
2023-01-01T14:01:26.308Z,3.27
2023-01-01T14:03:56.926Z,3.60
2023-01-01T14:06:29.990Z,3.20
2023-01-01T14:09:07.050Z,3.50
2023-01-01T14:11:36.613Z,3.43
2023-01-01T14:14:06.907Z,3.20
2023-01-01T14:16:35.393Z,3.53
2023-01-01T14:19:04.298Z,3.30
2023-01-01T14:21:33.880Z,3.20
2023-01-01T14:24:03.602Z,3.10
2023-01-01T14:26:32.810Z,3.70
2023-01-01T14:29:04.459Z,2.67
2023-01-01T14:31:33.878Z,3.23
2023-01-01T14:34:02.574Z,3.00
2023-01-01T14:36:32.221Z,3.33
2023-01-01T14:39:01.210Z,3.70
2023-01-01T14:41:30.105Z,3.53
2023-01-01T14:43:59.417Z,3.30
2023-01-01T14:46:29.533Z,3.33
2023-01-01T14:48:59.269Z,3.27
2023-01-01T14:51:28.684Z,3.20
2023-01-01T14:53:58.972Z,3.53
2023-01-01T14:56:28.442Z,3.10
2023-01-01T14:58:59.889Z,2.87
2023-01-01T15:01:29.581Z,3.30
2023-01-01T15:03:59.010Z,2.97
2023-01-01T15:06:27.570Z,3.10
2023-01-01T15:08:55.818Z,3.17
2023-01-01T15:11:28.732Z,3.10
2023-01-01T15:13:59.149Z,2.67
2023-01-01T15:16:32.191Z,2.97
2023-01-01T15:19:18.158Z,3.33
2023-01-01T15:21:46.760Z,3.20
2023-01-01T15:24:16.564Z,3.60
2023-01-01T15:26:47.615Z,3.57
2023-01-01T15:29:19.636Z,3.80
2023-01-01T15:31:50.692Z,3.43
2023-01-01T15:34:24.430Z,3.60
2023-01-01T15:36:54.111Z,3.60
2023-01-01T15:39:22.737Z,3.13
2023-01-01T15:41:51.805Z,2.90
2023-01-01T15:44:22.429Z,2.93
2023-01-01T15:46:52.776Z,3.23
2023-01-01T15:49:25.288Z,4.20
2023-01-01T15:51:53.916Z,3.30
2023-01-01T15:54:22.169Z,2.83
2023-01-01T15:56:50.430Z,3.13
2023-01-01T15:59:25.531Z,3.70
2023-01-01T16:02:04.076Z,2.93
2023-01-01T16:04:32.529Z,2.67
2023-01-01T16:07:01.054Z,3.00
2023-01-01T16:09:29.342Z,3.03
2023-01-01T16:11:59.262Z,3.10
2023-01-01T16:14:27.714Z,3.90
2023-01-01T16:17:00.734Z,4.20
2023-01-01T16:19:29.655Z,4.03
2023-01-01T16:21:57.933Z,3.97
2023-01-01T16:24:26.280Z,4.67
2023-01-01T16:26:54.561Z,3.70
2023-01-01T16:29:22.897Z,4.00
2023-01-01T16:31:52.463Z,3.87
2023-01-01T16:34:22.096Z,3.43
2023-01-01T16:36:50.355Z,3.83
2023-01-01T16:39:18.572Z,3.37
2023-01-01T16:41:46.817Z,3.63
2023-01-01T16:44:15.380Z,4.07
2023-01-01T16:46:43.817Z,8.70
2023-01-01T16:49:12.178Z,11.13
2023-01-01T16:51:43.956Z,6.00
2023-01-01T16:54:12.641Z,6.13
2023-01-01T16:56:40.947Z,5.57
2023-01-01T16:59:09.201Z,6.90
2023-01-01T17:01:37.671Z,4.77
2023-01-01T17:04:06.260Z,3.60
2023-01-01T17:06:34.849Z,3.57
2023-01-01T17:09:04.448Z,3.50
2023-01-01T17:11:33.746Z,3.13
2023-01-01T17:14:08.436Z,3.40
2023-01-01T17:16:41.242Z,3.40
2023-01-01T17:19:14.928Z,3.77
2023-01-01T17:21:45.413Z,3.10
2023-01-01T17:24:15.125Z,3.17
2023-01-01T17:26:43.457Z,3.23
2023-01-01T17:29:12.137Z,2.90
2023-01-01T17:31:40.483Z,2.80
2023-01-01T17:34:13.114Z,2.80
2023-01-01T17:36:42.362Z,3.00
2023-01-01T17:39:11.779Z,3.00
2023-01-01T17:41:41.495Z,2.60
2023-01-01T17:44:11.153Z,3.77
2023-01-01T17:46:39.530Z,3.07
2023-01-01T17:49:09.010Z,3.03
2023-01-01T17:51:39.279Z,3.20
2023-01-01T17:54:11.610Z,3.17
2023-01-01T17:56:41.458Z,4.50
2023-01-01T17:59:10.119Z,4.00
2023-01-01T18:01:38.674Z,3.40
2023-01-01T18:04:07.945Z,3.40
2023-01-01T18:06:41.496Z,3.90
2023-01-01T18:09:12.513Z,4.20
2023-01-01T18:11:42.622Z,4.10
2023-01-01T18:14:11.561Z,4.20
2023-01-01T18:16:41.154Z,4.37
2023-01-01T18:19:09.463Z,5.23
2023-01-01T18:21:37.722Z,5.43
2023-01-01T18:24:08.561Z,4.57
2023-01-01T18:26:36.837Z,4.27
2023-01-01T18:29:06.429Z,4.20
2023-01-01T18:31:36.177Z,4.00
2023-01-01T18:34:06.779Z,3.67
2023-01-01T18:36:35.810Z,4.20
2023-01-01T18:39:05.058Z,3.50
2023-01-01T18:41:42.125Z,4.10
2023-01-01T18:44:16.461Z,3.93
2023-01-01T18:46:44.797Z,4.10
2023-01-01T18:49:13.117Z,4.60
2023-01-01T18:51:41.329Z,4.40
2023-01-01T18:54:13.819Z,4.23
2023-01-01T18:56:42.407Z,4.50
2023-01-01T18:59:20.742Z,4.63
2023-01-01T19:01:49.284Z,4.37
2023-01-01T19:04:19.469Z,4.80
2023-01-01T19:06:47.815Z,5.50
2023-01-01T19:09:19.789Z,5.03
2023-01-01T19:11:48.242Z,5.00
2023-01-01T19:14:18.702Z,5.10
2023-01-01T19:16:47.434Z,5.47
2023-01-01T19:19:22.108Z,5.10
2023-01-01T19:21:52.221Z,4.20
2023-01-01T19:24:21.510Z,5.10
2023-01-01T19:26:49.825Z,5.20
2023-01-01T19:29:20.221Z,5.10
2023-01-01T19:31:48.851Z,5.20
2023-01-01T19:34:17.235Z,4.07
2023-01-01T19:36:46.259Z,4.50
2023-01-01T19:39:14.872Z,4.53
2023-01-01T19:41:44.524Z,4.60
2023-01-01T19:46:42.517Z,4.23
2023-01-01T19:49:10.878Z,4.50
2023-01-01T19:51:39.186Z,4.87
2023-01-01T19:54:07.869Z,4.47
2023-01-01T19:56:36.157Z,4.80
2023-01-01T19:59:04.425Z,4.70
2023-01-01T20:01:32.838Z,4.47
2023-01-01T20:04:02.837Z,4.77
2023-01-01T20:06:31.452Z,4.50
2023-01-01T20:08:59.736Z,5.03
2023-01-01T20:11:29.743Z,4.83
2023-01-01T20:13:57.991Z,4.90
2023-01-01T20:16:26.476Z,5.10
2023-01-01T20:18:54.824Z,5.17
2023-01-01T20:21:41.895Z,5.53
2023-01-01T20:24:11.019Z,5.50
2023-01-01T20:26:39.366Z,6.00
2023-01-01T20:29:23.188Z,5.63
2023-01-01T20:31:52.861Z,5.97
2023-01-01T20:34:21.447Z,6.73
2023-01-01T20:37:08.838Z,6.40
2023-01-01T20:39:37.207Z,6.87
2023-01-01T20:42:05.524Z,7.60
2023-01-01T20:44:33.883Z,7.43
2023-01-01T20:47:02.185Z,7.20
2023-01-01T20:49:30.528Z,6.30
2023-01-01T20:52:00.187Z,6.73
2023-01-01T20:54:28.608Z,7.57
2023-01-01T20:56:56.925Z,7.43
2023-01-01T20:59:35.315Z,6.70
2023-01-01T21:02:04.866Z,8.00
2023-01-01T21:04:33.433Z,7.17
2023-01-01T21:07:03.037Z,6.97
2023-01-01T21:09:31.339Z,6.53
2023-01-01T21:11:59.661Z,6.33
2023-01-01T21:14:27.938Z,6.37
2023-01-01T21:16:56.308Z,5.97
2023-01-01T21:19:27.169Z,6.03
2023-01-01T21:21:56.989Z,6.03
2023-01-01T21:24:27.634Z,6.13
2023-01-01T21:26:57.667Z,6.37
2023-01-01T21:29:26.542Z,6.20
2023-01-01T21:31:58.261Z,6.33
2023-01-01T21:34:29.595Z,6.57
2023-01-01T21:37:01.836Z,6.37
2023-01-01T21:39:31.612Z,6.00
2023-01-01T21:42:10.622Z,5.50
2023-01-01T21:44:38.887Z,5.63
2023-01-01T21:47:08.810Z,5.63
2023-01-01T21:49:37.837Z,5.37
2023-01-01T21:52:14.622Z,6.37
2023-01-01T21:54:44.606Z,6.60
2023-01-01T21:57:15.618Z,7.40
2023-01-01T21:59:45.674Z,7.10
2023-01-01T22:02:34.975Z,5.37
2023-01-01T22:05:04.797Z,6.70
2023-01-01T22:10:25.065Z,7.27
2023-01-01T22:12:55.419Z,5.90
2023-01-01T22:15:28.463Z,6.50
2023-01-01T22:18:01.141Z,5.63
2023-01-01T22:20:33.106Z,7.67
2023-01-01T22:23:05.208Z,6.93
2023-01-01T22:25:35.395Z,6.60
2023-01-01T22:28:16.010Z,6.07
2023-01-01T22:30:44.800Z,8.63
2023-01-01T22:33:15.344Z,10.80
2023-01-01T22:35:43.660Z,12.40
2023-01-01T22:38:16.598Z,11.97
2023-01-01T22:40:48.822Z,8.13
2023-01-01T22:43:18.308Z,8.87
2023-01-01T22:45:47.910Z,7.33
2023-01-01T22:48:20.301Z,7.13
2023-01-01T22:50:48.569Z,6.40
2023-01-01T22:53:17.530Z,6.43
2023-01-01T22:55:47.232Z,6.73
2023-01-01T22:58:15.482Z,6.43
2023-01-01T23:00:43.770Z,6.27
2023-01-01T23:03:12.210Z,6.37
2023-01-01T23:05:40.576Z,6.50
2023-01-01T23:08:08.901Z,6.50
2023-01-01T23:10:37.567Z,5.80
2023-01-01T23:13:21.157Z,6.40
2023-01-01T23:16:01.513Z,6.10
2023-01-01T23:18:31.308Z,6.57
2023-01-01T23:21:00.039Z,6.03
2023-01-01T23:23:29.054Z,5.50
2023-01-01T23:25:57.683Z,5.70
2023-01-01T23:28:28.092Z,5.67
2023-01-01T23:30:56.689Z,6.00
2023-01-01T23:33:25.020Z,5.53
2023-01-01T23:35:53.859Z,5.80
2023-01-01T23:38:22.513Z,6.00
2023-01-01T23:40:50.723Z,5.53
2023-01-01T23:43:19.066Z,5.43
2023-01-01T23:45:49.325Z,5.67
2023-01-01T23:48:17.614Z,5.37
2023-01-01T23:50:46.038Z,6.00
2023-01-01T23:53:14.363Z,5.23
2023-01-01T23:55:42.670Z,5.47
2023-01-01T23:58:11.056Z,5.03
